Arethusa — 9HJR9 — position and weather

sailwx.info

Track history (hours):
 
Tides and Currents Weather Stations Pressure Air Temp Water Temp Dewpoint Dewpoint Depression Visibility Wind Speed Wind Dir Waves Ship Positions

Arethusa

Last reported at 2017-Jun-27 22:29 UTC. Time now 2017-Jun-27 22:34 UTC.
Position N 44°03' E 009°51'.

Length 60 m; draft 3 m.

Type: Passenger vessel. MMSI: 249069000.

Date/timePositionNaut miles runAvg speedWind from/ knotsBaromVisibWave heightAir tempDewpointWater temp
2017-Jun-27 22:29N 44°03' E 009°51'0 0.0
2017-Jun-27 21:59N 44°03' E 009°51'0 0.0
2017-Jun-27 21:29N 44°03' E 009°51'0 0.0
2017-Jun-27 20:59N 44°03' E 009°51'0 0.0
2017-Jun-27 20:26N 44°03' E 009°51'0 0.0
2017-Jun-27 19:59N 44°03' E 009°51'0 0.0
2017-Jun-27 19:29N 44°03' E 009°51'0 0.0
2017-Jun-27 18:59N 44°03' E 009°51'0 0.0
2017-Jun-27 18:29N 44°03' E 009°51'0 0.0
2017-Jun-27 17:59N 44°03' E 009°51'0 0.0
2017-Jun-27 17:26N 44°03' E 009°51'0 0.0
2017-Jun-27 16:59N 44°03' E 009°51'0 0.0
2017-Jun-27 16:26N 44°03' E 009°51'0 0.0
2017-Jun-27 15:56N 44°03' E 009°51'0 0.0
2017-Jun-27 15:29N 44°03' E 009°51'0 0.0
2017-Jun-27 14:59N 44°03' E 009°51'0 0.0
2017-Jun-27 14:29N 44°03' E 009°51'0 0.0
2017-Jun-27 13:29N 44°03' E 009°51'0 0.0
2017-Jun-27 12:59N 44°03' E 009°51'0 0.0
2017-Jun-27 12:29N 44°03' E 009°51'0 0.0
2017-Jun-27 11:59N 44°03' E 009°51'0 0.0
2017-Jun-27 11:29N 44°03' E 009°51'0 0.0
2017-Jun-27 10:59N 44°03' E 009°51'0 0.0
2017-Jun-27 10:29N 44°03' E 009°51'0 0.0
2017-Jun-27 09:59N 44°03' E 009°51'0 0.0
2017-Jun-27 09:29N 44°03' E 009°51'0 0.0
2017-Jun-27 08:59N 44°03' E 009°51'0 0.0
2017-Jun-27 08:29N 44°03' E 009°51'0 0.0
2017-Jun-27 07:59N 44°03' E 009°51'0 0.1
2017-Jun-27 07:29N 44°03' E 009°51'0 0.0
2017-Jun-27 06:59N 44°03' E 009°51'0 0.0
2017-Jun-27 06:29N 44°03' E 009°51'0 0.0
2017-Jun-27 05:59N 44°03' E 009°51'0 0.0
2017-Jun-27 05:29N 44°03' E 009°51'0 0.0
2017-Jun-27 04:59N 44°03' E 009°51'0 0.0
2017-Jun-27 04:29N 44°03' E 009°51'0 0.0
2017-Jun-27 03:59N 44°03' E 009°51'0 0.0
2017-Jun-27 03:29N 44°03' E 009°51'0 0.0
2017-Jun-27 02:59N 44°03' E 009°51'0 0.0
2017-Jun-27 02:29N 44°03' E 009°51'0 0.0
2017-Jun-27 01:59N 44°03' E 009°51'0 0.0
2017-Jun-27 01:26N 44°03' E 009°51'0 0.0
2017-Jun-27 00:59N 44°03' E 009°51'0 0.0
2017-Jun-27 00:29N 44°03' E 009°51'0 0.0
2017-Jun-26 23:59N 44°03' E 009°51'0 0.0
2017-Jun-26 23:29N 44°03' E 009°51'0 0.0
2017-Jun-26 22:59N 44°03' E 009°51'0 0.0
2017-Jun-26 22:29N 44°03' E 009°51'0 0.0
2017-Jun-26 21:59N 44°03' E 009°51'0 0.0
2017-Jun-26 21:29N 44°03' E 009°51'0 0.0
2017-Jun-26 20:59N 44°03' E 009°51'0 0.0
2017-Jun-26 20:29N 44°03' E 009°51'4 8.1
2017-Jun-26 20:00N 44°01' E 009°55'4 8.7
2017-Jun-26 19:30N 43°59' E 009°50'5 9.8
2017-Jun-26 19:00N 44°00' E 009°44'510.9
2017-Jun-26 18:30N 44°04' E 009°38'510.7
2017-Jun-26 18:00N 44°07' E 009°32'510.7
2017-Jun-26 17:30N 44°11' E 009°27'511.0
2017-Jun-26 17:00N 44°15' E 009°21'4 0.4
2017-Jun-26 04:59N 44°16' E 009°16'511.3
2017-Jun-26 04:30N 44°14' E 009°09'611.5
2017-Jun-26 04:00N 44°11' E 009°02'611.5
2017-Jun-26 03:30N 44°08' E 008°55'711.2
2017-Jun-26 02:53N 44°05' E 008°46'511.2
2017-Jun-26 02:28N 44°03' E 008°40'  
2017-Jun-22 22:05N 44°08' E 008°53'110.2
2017-Jun-22 21:59N 44°08' E 008°54'610.2
2017-Jun-22 21:25N 44°11' E 009°01'410.3
2017-Jun-22 21:00N 44°13' E 009°07'610.4
2017-Jun-22 20:24N 44°16' E 009°14'3 2.3
2017-Jun-22 19:10N 44°18' E 009°17'0 0.2
2017-Jun-22 18:55N 44°18' E 009°17'2 0.1
2017-Jun-22 05:07N 44°19' E 009°15'510.4
2017-Jun-22 04:40N 44°15' E 009°20'210.4
2017-Jun-22 04:30N 44°14' E 009°22'510.4
2017-Jun-22 04:00N 44°11' E 009°27'510.3
2017-Jun-22 03:30N 44°07' E 009°32'510.2
2017-Jun-22 03:00N 44°04' E 009°38'510.2
2017-Jun-22 02:30N 44°01' E 009°44'510.0
2017-Jun-22 02:00N 43°60' E 009°50'3 5.4
2017-Jun-22 01:23N 44°03' E 009°51'0 0.0
2017-Jun-22 00:59N 44°03' E 009°51'0 0.0
2017-Jun-22 00:29N 44°03' E 009°51'0 0.0
2017-Jun-21 23:59N 44°03' E 009°51'0 0.0
2017-Jun-21 23:29N 44°03' E 009°51'0 0.0
2017-Jun-21 22:59N 44°03' E 009°51'0 0.0
2017-Jun-21 22:29N 44°03' E 009°51'0 0.0
2017-Jun-21 21:59N 44°03' E 009°51'0 0.0
2017-Jun-21 21:23N 44°03' E 009°51'0 0.0
2017-Jun-21 20:56N 44°03' E 009°51'0 0.0
2017-Jun-21 20:29N 44°03' E 009°51'0 0.0
2017-Jun-21 19:59N 44°03' E 009°51'0 0.0
2017-Jun-21 19:29N 44°03' E 009°51'0 0.0
2017-Jun-21 18:56N 44°03' E 009°51'0 0.0
2017-Jun-21 18:29N 44°03' E 009°51'0 0.0
2017-Jun-21 17:59N 44°03' E 009°51'0 0.0
2017-Jun-21 17:29N 44°03' E 009°51'0 0.0
2017-Jun-21 16:59N 44°03' E 009°51'0 0.0
2017-Jun-21 16:29N 44°03' E 009°51'0 0.0
2017-Jun-21 15:59N 44°03' E 009°51'0 0.0
2017-Jun-21 15:26N 44°03' E 009°51'0 0.0
2017-Jun-21 14:59N 44°03' E 009°51'0 0.0
2017-Jun-21 14:29N 44°03' E 009°51'0 0.0
2017-Jun-21 13:29N 44°03' E 009°51'0 0.0
2017-Jun-21 12:59N 44°03' E 009°51'0 0.0
2017-Jun-21 12:29N 44°03' E 009°51'0 0.0
2017-Jun-21 11:59N 44°03' E 009°51'0 0.0
2017-Jun-21 11:29N 44°03' E 009°51'0 0.0
2017-Jun-21 10:59N 44°03' E 009°51'0 0.0
2017-Jun-21 10:26N 44°03' E 009°51'0 0.0
2017-Jun-21 09:59N 44°03' E 009°51'0 0.0
2017-Jun-21 09:29N 44°03' E 009°51'0 0.0
2017-Jun-21 08:59N 44°03' E 009°51'0 0.0
2017-Jun-21 08:29N 44°03' E 009°51'0 0.0
2017-Jun-21 07:59N 44°03' E 009°51'0 0.0
2017-Jun-21 07:29N 44°03' E 009°51'0 0.0
2017-Jun-21 06:59N 44°03' E 009°51'0 0.0
2017-Jun-21 06:29N 44°03' E 009°51'0 0.0
2017-Jun-21 05:59N 44°03' E 009°51'0 0.0
2017-Jun-21 05:29N 44°03' E 009°51'0 0.0
2017-Jun-21 04:59N 44°03' E 009°51'0 0.0
2017-Jun-21 04:20N 44°03' E 009°51'0 0.0
2017-Jun-21 03:59N 44°03' E 009°51'0 0.0
2017-Jun-21 03:29N 44°03' E 009°51'0 0.0
2017-Jun-21 02:59N 44°03' E 009°51'0 0.0
2017-Jun-21 02:29N 44°03' E 009°51'0 0.0
2017-Jun-21 01:59N 44°03' E 009°51'0 0.0
2017-Jun-21 01:29N 44°03' E 009°51'0 0.0
2017-Jun-21 00:59N 44°03' E 009°51'0 0.0
2017-Jun-21 00:29N 44°03' E 009°51'0 0.0
2017-Jun-20 23:59N 44°03' E 009°51'0 0.0
2017-Jun-20 23:29N 44°03' E 009°51'0 0.0
2017-Jun-20 22:59N 44°03' E 009°51'0 0.0
2017-Jun-20 22:29N 44°03' E 009°51'0 0.0
2017-Jun-20 21:59N 44°03' E 009°51'0 0.0
2017-Jun-20 21:29N 44°03' E 009°51'0 0.0
2017-Jun-20 20:59N 44°03' E 009°51'0 0.0
2017-Jun-20 20:29N 44°03' E 009°51'0 0.0
2017-Jun-20 19:59N 44°03' E 009°51'0 0.0
2017-Jun-20 19:29N 44°03' E 009°51'0 0.0
2017-Jun-20 18:56N 44°03' E 009°51'0 0.0
2017-Jun-20 18:29N 44°03' E 009°51'0 0.0
2017-Jun-20 17:59N 44°03' E 009°51'0 0.0
2017-Jun-20 17:29N 44°03' E 009°51'0 0.0
2017-Jun-20 16:59N 44°03' E 009°51'0 0.0
2017-Jun-20 16:29N 44°03' E 009°51'0 0.1
2017-Jun-20 15:56N 44°03' E 009°51'0 0.0
2017-Jun-20 15:29N 44°03' E 009°51'0 0.0
2017-Jun-20 14:59N 44°03' E 009°51'0 0.0
2017-Jun-20 14:29N 44°03' E 009°51'0 0.0
2017-Jun-20 13:29N 44°03' E 009°51'0 0.0
2017-Jun-20 12:59N 44°03' E 009°51'0 0.0
2017-Jun-20 12:29N 44°03' E 009°51'2 4.5
2017-Jun-20 12:00N 44°02' E 009°53'510.4
2017-Jun-20 11:30N 44°00' E 009°60'3 4.6
2017-Jun-20 10:58N 44°02' E 010°02'0 0.0
2017-Jun-20 10:22N 44°02' E 010°02'0 0.0
2017-Jun-20 09:58N 44°02' E 010°02'0 0.0
2017-Jun-20 09:28N 44°02' E 010°02'0 0.0
2017-Jun-20 08:55N 44°02' E 010°02'0 0.0
2017-Jun-20 08:30N 44°02' E 010°02'0 0.0
2017-Jun-20 08:00N 44°02' E 010°02'0 0.0
2017-Jun-20 07:30N 44°02' E 010°02'0 0.0
2017-Jun-20 07:00N 44°02' E 010°02'0 0.0
2017-Jun-20 06:30N 44°02' E 010°02'0 0.0
2017-Jun-20 06:00N 44°02' E 010°02'1 1.4
2017-Jun-20 05:30N 44°01' E 010°03'4 8.5
2017-Jun-20 05:00N 43°58' E 010°01'4 8.4
2017-Jun-20 04:30N 43°54' E 009°59'2 5.0
2017-Jun-20 04:00N 43°51' E 009°58'510.8
2017-Jun-20 03:31N 43°46' E 009°55'510.6
2017-Jun-20 03:00N 43°41' E 009°54'510.6
2017-Jun-20 02:30N 43°36' E 009°51'510.4
2017-Jun-20 01:59N 43°32' E 009°47'511.0
2017-Jun-20 01:30N 43°27' E 009°44'711.1
2017-Jun-20 00:52N 43°19' E 009°43'36 1.3
2017-Jun-18 21:27N 42°44' E 009°38'2910.6
2017-Jun-18 18:41N 42°52' E 010°16'210.5
2017-Jun-18 18:28N 42°51' E 010°19'2 2.0
2017-Jun-18 17:18N 42°49' E 010°20'1 0.0
2017-Jun-18 02:58N 42°48' E 010°20'0 0.0
2017-Jun-18 02:27N 42°48' E 010°20'0 0.0
2017-Jun-18 01:17N 42°48' E 010°20'0 0.0
2017-Jun-18 01:00N 42°48' E 010°20'0 0.0
2017-Jun-18 00:30N 42°48' E 010°20'10 5.0
2017-Jun-17 22:33N 42°58' E 010°19'  
Track history (hours):
 
Tides and Currents Weather Stations Pressure Air Temp Water Temp Dewpoint Dewpoint Depression Visibility Wind Speed Wind Dir Waves Ship Positions

Arethusa

Last reported at 2017-Jun-27 22:29 UTC. Time now 2017-Jun-27 22:34 UTC.
Position N 44°03' E 009°51'.

Length 60 m; draft 3 m.

Type: Passenger vessel. MMSI: 249069000.

Date/timePositionNaut miles runAvg speedWind from/ knotsBaromVisibWave heightAir tempDewpointWater temp
2017-Jun-27 22:29N 44°03' E 009°51'0 0.0
2017-Jun-27 21:59N 44°03' E 009°51'0 0.0
2017-Jun-27 21:29N 44°03' E 009°51'0 0.0
2017-Jun-27 20:59N 44°03' E 009°51'0 0.0
2017-Jun-27 20:26N 44°03' E 009°51'0 0.0
2017-Jun-27 19:59N 44°03' E 009°51'0 0.0
2017-Jun-27 19:29N 44°03' E 009°51'0 0.0
2017-Jun-27 18:59N 44°03' E 009°51'0 0.0
2017-Jun-27 18:29N 44°03' E 009°51'0 0.0
2017-Jun-27 17:59N 44°03' E 009°51'0 0.0
2017-Jun-27 17:26N 44°03' E 009°51'0 0.0
2017-Jun-27 16:59N 44°03' E 009°51'0 0.0
2017-Jun-27 16:26N 44°03' E 009°51'0 0.0
2017-Jun-27 15:56N 44°03' E 009°51'0 0.0
2017-Jun-27 15:29N 44°03' E 009°51'0 0.0
2017-Jun-27 14:59N 44°03' E 009°51'0 0.0
2017-Jun-27 14:29N 44°03' E 009°51'0 0.0
2017-Jun-27 13:29N 44°03' E 009°51'0 0.0
2017-Jun-27 12:59N 44°03' E 009°51'0 0.0
2017-Jun-27 12:29N 44°03' E 009°51'0 0.0
2017-Jun-27 11:59N 44°03' E 009°51'0 0.0
2017-Jun-27 11:29N 44°03' E 009°51'0 0.0
2017-Jun-27 10:59N 44°03' E 009°51'0 0.0
2017-Jun-27 10:29N 44°03' E 009°51'0 0.0
2017-Jun-27 09:59N 44°03' E 009°51'0 0.0
2017-Jun-27 09:29N 44°03' E 009°51'0 0.0
2017-Jun-27 08:59N 44°03' E 009°51'0 0.0
2017-Jun-27 08:29N 44°03' E 009°51'0 0.0
2017-Jun-27 07:59N 44°03' E 009°51'0 0.1
2017-Jun-27 07:29N 44°03' E 009°51'0 0.0
2017-Jun-27 06:59N 44°03' E 009°51'0 0.0
2017-Jun-27 06:29N 44°03' E 009°51'0 0.0
2017-Jun-27 05:59N 44°03' E 009°51'0 0.0
2017-Jun-27 05:29N 44°03' E 009°51'0 0.0
2017-Jun-27 04:59N 44°03' E 009°51'0 0.0
2017-Jun-27 04:29N 44°03' E 009°51'0 0.0
2017-Jun-27 03:59N 44°03' E 009°51'0 0.0
2017-Jun-27 03:29N 44°03' E 009°51'0 0.0
2017-Jun-27 02:59N 44°03' E 009°51'0 0.0
2017-Jun-27 02:29N 44°03' E 009°51'0 0.0
2017-Jun-27 01:59N 44°03' E 009°51'0 0.0
2017-Jun-27 01:26N 44°03' E 009°51'0 0.0
2017-Jun-27 00:59N 44°03' E 009°51'0 0.0
2017-Jun-27 00:29N 44°03' E 009°51'0 0.0
2017-Jun-26 23:59N 44°03' E 009°51'0 0.0
2017-Jun-26 23:29N 44°03' E 009°51'0 0.0
2017-Jun-26 22:59N 44°03' E 009°51'0 0.0
2017-Jun-26 22:29N 44°03' E 009°51'0 0.0
2017-Jun-26 21:59N 44°03' E 009°51'0 0.0
2017-Jun-26 21:29N 44°03' E 009°51'0 0.0
2017-Jun-26 20:59N 44°03' E 009°51'0 0.0
2017-Jun-26 20:29N 44°03' E 009°51'4 8.1
2017-Jun-26 20:00N 44°01' E 009°55'4 8.7
2017-Jun-26 19:30N 43°59' E 009°50'5 9.8
2017-Jun-26 19:00N 44°00' E 009°44'510.9
2017-Jun-26 18:30N 44°04' E 009°38'510.7
2017-Jun-26 18:00N 44°07' E 009°32'510.7
2017-Jun-26 17:30N 44°11' E 009°27'511.0
2017-Jun-26 17:00N 44°15' E 009°21'4 0.4
2017-Jun-26 04:59N 44°16' E 009°16'511.3
2017-Jun-26 04:30N 44°14' E 009°09'611.5
2017-Jun-26 04:00N 44°11' E 009°02'611.5
2017-Jun-26 03:30N 44°08' E 008°55'711.2
2017-Jun-26 02:53N 44°05' E 008°46'511.2
2017-Jun-26 02:28N 44°03' E 008°40'  
2017-Jun-22 22:05N 44°08' E 008°53'110.2
2017-Jun-22 21:59N 44°08' E 008°54'610.2
2017-Jun-22 21:25N 44°11' E 009°01'410.3
2017-Jun-22 21:00N 44°13' E 009°07'610.4
2017-Jun-22 20:24N 44°16' E 009°14'3 2.3
2017-Jun-22 19:10N 44°18' E 009°17'0 0.2
2017-Jun-22 18:55N 44°18' E 009°17'2 0.1
2017-Jun-22 05:07N 44°19' E 009°15'510.4
2017-Jun-22 04:40N 44°15' E 009°20'210.4
2017-Jun-22 04:30N 44°14' E 009°22'510.4
2017-Jun-22 04:00N 44°11' E 009°27'510.3
2017-Jun-22 03:30N 44°07' E 009°32'510.2
2017-Jun-22 03:00N 44°04' E 009°38'510.2
2017-Jun-22 02:30N 44°01' E 009°44'510.0
2017-Jun-22 02:00N 43°60' E 009°50'3 5.4
2017-Jun-22 01:23N 44°03' E 009°51'0 0.0
2017-Jun-22 00:59N 44°03' E 009°51'0 0.0
2017-Jun-22 00:29N 44°03' E 009°51'0 0.0
2017-Jun-21 23:59N 44°03' E 009°51'0 0.0
2017-Jun-21 23:29N 44°03' E 009°51'0 0.0
2017-Jun-21 22:59N 44°03' E 009°51'0 0.0
2017-Jun-21 22:29N 44°03' E 009°51'0 0.0
2017-Jun-21 21:59N 44°03' E 009°51'0 0.0
2017-Jun-21 21:23N 44°03' E 009°51'0 0.0
2017-Jun-21 20:56N 44°03' E 009°51'0 0.0
2017-Jun-21 20:29N 44°03' E 009°51'0 0.0
2017-Jun-21 19:59N 44°03' E 009°51'0 0.0
2017-Jun-21 19:29N 44°03' E 009°51'0 0.0
2017-Jun-21 18:56N 44°03' E 009°51'0 0.0
2017-Jun-21 18:29N 44°03' E 009°51'0 0.0
2017-Jun-21 17:59N 44°03' E 009°51'0 0.0
2017-Jun-21 17:29N 44°03' E 009°51'0 0.0
2017-Jun-21 16:59N 44°03' E 009°51'0 0.0
2017-Jun-21 16:29N 44°03' E 009°51'0 0.0
2017-Jun-21 15:59N 44°03' E 009°51'0 0.0
2017-Jun-21 15:26N 44°03' E 009°51'0 0.0
2017-Jun-21 14:59N 44°03' E 009°51'0 0.0
2017-Jun-21 14:29N 44°03' E 009°51'0 0.0
2017-Jun-21 13:29N 44°03' E 009°51'0 0.0
2017-Jun-21 12:59N 44°03' E 009°51'0 0.0
2017-Jun-21 12:29N 44°03' E 009°51'0 0.0
2017-Jun-21 11:59N 44°03' E 009°51'0 0.0
2017-Jun-21 11:29N 44°03' E 009°51'0 0.0
2017-Jun-21 10:59N 44°03' E 009°51'0 0.0
2017-Jun-21 10:26N 44°03' E 009°51'0 0.0
2017-Jun-21 09:59N 44°03' E 009°51'0 0.0
2017-Jun-21 09:29N 44°03' E 009°51'0 0.0
2017-Jun-21 08:59N 44°03' E 009°51'0 0.0
2017-Jun-21 08:29N 44°03' E 009°51'0 0.0
2017-Jun-21 07:59N 44°03' E 009°51'0 0.0
2017-Jun-21 07:29N 44°03' E 009°51'0 0.0
2017-Jun-21 06:59N 44°03' E 009°51'0 0.0
2017-Jun-21 06:29N 44°03' E 009°51'0 0.0
2017-Jun-21 05:59N 44°03' E 009°51'0 0.0
2017-Jun-21 05:29N 44°03' E 009°51'0 0.0
2017-Jun-21 04:59N 44°03' E 009°51'0 0.0
2017-Jun-21 04:20N 44°03' E 009°51'0 0.0
2017-Jun-21 03:59N 44°03' E 009°51'0 0.0
2017-Jun-21 03:29N 44°03' E 009°51'0 0.0
2017-Jun-21 02:59N 44°03' E 009°51'0 0.0
2017-Jun-21 02:29N 44°03' E 009°51'0 0.0
2017-Jun-21 01:59N 44°03' E 009°51'0 0.0
2017-Jun-21 01:29N 44°03' E 009°51'0 0.0
2017-Jun-21 00:59N 44°03' E 009°51'0 0.0
2017-Jun-21 00:29N 44°03' E 009°51'0 0.0
2017-Jun-20 23:59N 44°03' E 009°51'0 0.0
2017-Jun-20 23:29N 44°03' E 009°51'0 0.0
2017-Jun-20 22:59N 44°03' E 009°51'0 0.0
2017-Jun-20 22:29N 44°03' E 009°51'0 0.0
2017-Jun-20 21:59N 44°03' E 009°51'0 0.0
2017-Jun-20 21:29N 44°03' E 009°51'0 0.0
2017-Jun-20 20:59N 44°03' E 009°51'0 0.0
2017-Jun-20 20:29N 44°03' E 009°51'0 0.0
2017-Jun-20 19:59N 44°03' E 009°51'0 0.0
2017-Jun-20 19:29N 44°03' E 009°51'0 0.0
2017-Jun-20 18:56N 44°03' E 009°51'0 0.0
2017-Jun-20 18:29N 44°03' E 009°51'0 0.0
2017-Jun-20 17:59N 44°03' E 009°51'0 0.0
2017-Jun-20 17:29N 44°03' E 009°51'0 0.0
2017-Jun-20 16:59N 44°03' E 009°51'0 0.0
2017-Jun-20 16:29N 44°03' E 009°51'0 0.1
2017-Jun-20 15:56N 44°03' E 009°51'0 0.0
2017-Jun-20 15:29N 44°03' E 009°51'0 0.0
2017-Jun-20 14:59N 44°03' E 009°51'0 0.0
2017-Jun-20 14:29N 44°03' E 009°51'0 0.0
2017-Jun-20 13:29N 44°03' E 009°51'0 0.0
2017-Jun-20 12:59N 44°03' E 009°51'0 0.0
2017-Jun-20 12:29N 44°03' E 009°51'2 4.5
2017-Jun-20 12:00N 44°02' E 009°53'510.4
2017-Jun-20 11:30N 44°00' E 009°60'3 4.6
2017-Jun-20 10:58N 44°02' E 010°02'0 0.0
2017-Jun-20 10:22N 44°02' E 010°02'0 0.0
2017-Jun-20 09:58N 44°02' E 010°02'0 0.0
2017-Jun-20 09:28N 44°02' E 010°02'0 0.0
2017-Jun-20 08:55N 44°02' E 010°02'0 0.0
2017-Jun-20 08:30N 44°02' E 010°02'0 0.0
2017-Jun-20 08:00N 44°02' E 010°02'0 0.0
2017-Jun-20 07:30N 44°02' E 010°02'0 0.0
2017-Jun-20 07:00N 44°02' E 010°02'0 0.0
2017-Jun-20 06:30N 44°02' E 010°02'0 0.0
2017-Jun-20 06:00N 44°02' E 010°02'1 1.4
2017-Jun-20 05:30N 44°01' E 010°03'4 8.5
2017-Jun-20 05:00N 43°58' E 010°01'4 8.4
2017-Jun-20 04:30N 43°54' E 009°59'2 5.0
2017-Jun-20 04:00N 43°51' E 009°58'510.8
2017-Jun-20 03:31N 43°46' E 009°55'510.6
2017-Jun-20 03:00N 43°41' E 009°54'510.6
2017-Jun-20 02:30N 43°36' E 009°51'510.4
2017-Jun-20 01:59N 43°32' E 009°47'511.0
2017-Jun-20 01:30N 43°27' E 009°44'711.1
2017-Jun-20 00:52N 43°19' E 009°43'36 1.3
2017-Jun-18 21:27N 42°44' E 009°38'2910.6
2017-Jun-18 18:41N 42°52' E 010°16'210.5
2017-Jun-18 18:28N 42°51' E 010°19'2 2.0
2017-Jun-18 17:18N 42°49' E 010°20'1 0.0
2017-Jun-18 02:58N 42°48' E 010°20'0 0.0
2017-Jun-18 02:27N 42°48' E 010°20'0 0.0
2017-Jun-18 01:17N 42°48' E 010°20'0 0.0
2017-Jun-18 01:00N 42°48' E 010°20'0 0.0
2017-Jun-18 00:30N 42°48' E 010°20'10 5.0
2017-Jun-17 22:33N 42°58' E 010°19'  

Dump ship's entire track history